createdAt,value
2022-08-17T00:00:42.926Z,101171.81
2022-08-17T00:03:15.658Z,101176.97
2022-08-17T00:05:48.662Z,101176.97
2022-08-17T00:08:20.757Z,101175.50
2022-08-17T00:10:54.172Z,101168.13
2022-08-17T00:13:33.615Z,101174.41
2022-08-17T00:16:07.566Z,101169.69
2022-08-17T00:19:06.566Z,101168.69
2022-08-17T00:21:27.331Z,101168.94
2022-08-17T00:24:16.153Z,101173.03
2022-08-17T00:26:45.559Z,101176.41
2022-08-17T00:29:19.503Z,101177.63
2022-08-17T00:31:50.026Z,101167.84
2022-08-17T00:34:20.887Z,101173.63
2022-08-17T00:36:49.342Z,101168.47
2022-08-17T00:39:18.707Z,101159.03
2022-08-17T00:41:48.460Z,101168.56
2022-08-17T00:44:18.157Z,101173.00
2022-08-17T00:46:50.453Z,101170.47
2022-08-17T00:49:19.944Z,101167.13
2022-08-17T00:51:52.572Z,101157.63
2022-08-17T00:54:25.496Z,101159.69
2022-08-17T00:56:56.927Z,101160.72
2022-08-17T00:59:31.415Z,101157.44
2022-08-17T01:02:04.261Z,101168.69
2022-08-17T01:04:34.263Z,101167.97
2022-08-17T01:07:06.027Z,101170.47
2022-08-17T01:09:35.528Z,101168.47
2022-08-17T01:12:10.533Z,101172.16
2022-08-17T01:14:41.093Z,101175.28
2022-08-17T01:17:12.596Z,101170.69
2022-08-17T01:19:44.269Z,101168.69
2022-08-17T01:22:22.694Z,101158.41
2022-08-17T01:24:58.315Z,101163.22
2022-08-17T01:27:28.904Z,101163.47
2022-08-17T01:30:58.678Z,101167.69
2022-08-17T01:33:11.554Z,101170.13
2022-08-17T01:35:46.022Z,101169.41
2022-08-17T01:38:17.273Z,101171.16
2022-08-17T01:41:01.853Z,101176.81
2022-08-17T01:43:36.115Z,101187.81
2022-08-17T01:46:11.217Z,101188.16
2022-08-17T01:48:40.528Z,101194.38
2022-08-17T01:51:11.172Z,101194.09
2022-08-17T01:53:57.841Z,101191.69
2022-08-17T01:56:31.272Z,101189.38
2022-08-17T01:59:01.144Z,101191.53
2022-08-17T02:01:32.567Z,101195.13
2022-08-17T02:04:01.903Z,101189.03
2022-08-17T02:06:53.553Z,101189.34
2022-08-17T02:09:32.788Z,101190.50
2022-08-17T02:12:38.124Z,101189.75
2022-08-17T02:14:56.821Z,101190.72
2022-08-17T02:17:25.638Z,101185.53
2022-08-17T02:19:54.249Z,101187.72
2022-08-17T02:22:26.396Z,101195.09
2022-08-17T02:25:02.092Z,101197.97
2022-08-17T02:27:31.367Z,101199.72
2022-08-17T02:30:03.177Z,101192.16
2022-08-17T02:32:34.814Z,101192.84
2022-08-17T02:35:06.252Z,101185.53
2022-08-17T02:37:36.674Z,101187.75
2022-08-17T02:40:09.559Z,101191.81
2022-08-17T02:42:41.638Z,101187.06
2022-08-17T02:45:13.297Z,101180.94
2022-08-17T02:47:45.953Z,101181.66
2022-08-17T02:50:30.200Z,101186.75
2022-08-17T02:53:02.863Z,101194.09
2022-08-17T02:55:38.543Z,101194.09
2022-08-17T02:58:08.571Z,101184.19
2022-08-17T03:00:41.666Z,101186.63
2022-08-17T03:03:13.719Z,101183.34
2022-08-17T03:05:43.267Z,101184.19
2022-08-17T03:08:13.217Z,101184.53
2022-08-17T03:10:45.664Z,101179.69
2022-08-17T03:13:15.687Z,101181.69
2022-08-17T03:15:49.848Z,101183.94
2022-08-17T03:18:25.141Z,101188.88
2022-08-17T03:21:04.625Z,101189.22
2022-08-17T03:23:41.056Z,101198.00
2022-08-17T03:26:15.515Z,101194.50
2022-08-17T03:28:45.935Z,101195.88
2022-08-17T03:31:14.660Z,101198.13
2022-08-17T03:33:44.285Z,101202.38
2022-08-17T03:36:12.840Z,101202.13
2022-08-17T03:38:41.870Z,101201.78
2022-08-17T03:41:11.974Z,101201.28
2022-08-17T03:43:40.312Z,101199.59
2022-08-17T03:46:32.494Z,101198.00
2022-08-17T03:49:27.626Z,101196.56
2022-08-17T03:52:24.301Z,101203.63
2022-08-17T03:55:12.320Z,101196.44
2022-08-17T03:57:42.924Z,101197.16
2022-08-17T04:00:15.888Z,101200.56
2022-08-17T04:02:56.896Z,101211.19
2022-08-17T04:05:26.214Z,101210.88
2022-08-17T04:08:14.115Z,101224.25
2022-08-17T04:10:45.180Z,101212.19
2022-08-17T04:13:24.063Z,101212.81
2022-08-17T04:15:56.485Z,101210.88
2022-08-17T04:18:26.574Z,101212.47
2022-08-17T04:20:55.469Z,101220.41
2022-08-17T04:23:28.553Z,101218.63
2022-08-17T04:25:57.773Z,101215.56
2022-08-17T04:28:27.824Z,101217.97
2022-08-17T04:30:56.296Z,101216.94
2022-08-17T04:33:28.185Z,101218.31
2022-08-17T04:36:01.709Z,101219.78
2022-08-17T04:38:32.501Z,101227.84
2022-08-17T04:41:19.682Z,101227.84
2022-08-17T04:43:55.262Z,101223.22
2022-08-17T04:46:26.209Z,101224.91
2022-08-17T04:48:58.761Z,101236.53
2022-08-17T04:51:30.891Z,101240.69
2022-08-17T04:54:02.181Z,101236.53
2022-08-17T04:56:31.862Z,101237.16
2022-08-17T04:59:07.134Z,101243.41
2022-08-17T05:01:39.657Z,101233.88
2022-08-17T05:04:33.258Z,101241.81
2022-08-17T05:07:00.785Z,101244.78
2022-08-17T05:09:29.341Z,101246.47
2022-08-17T05:12:01.799Z,101243.41
2022-08-17T05:14:32.951Z,101249.16
2022-08-17T05:17:11.305Z,101254.78
2022-08-17T05:19:40.375Z,101263.75
2022-08-17T05:22:09.260Z,101271.81
2022-08-17T05:24:43.587Z,101271.56
2022-08-17T05:27:23.696Z,101264.47
2022-08-17T05:29:55.093Z,101266.19
2022-08-17T05:32:37.868Z,101264.78
2022-08-17T05:35:10.897Z,101263.94
2022-08-17T05:37:39.245Z,101261.28
2022-08-17T05:40:10.909Z,101275.13
2022-08-17T05:42:47.353Z,101273.03
2022-08-17T05:45:55.887Z,101275.97
2022-08-17T05:48:10.404Z,101276.72
2022-08-17T05:50:51.068Z,101270.25
2022-08-17T05:53:25.922Z,101278.72
2022-08-17T05:56:13.109Z,101280.19
2022-08-17T05:59:06.653Z,101285.41
2022-08-17T06:01:45.537Z,101288.13
2022-08-17T06:04:21.623Z,101292.06
2022-08-17T06:06:57.388Z,101286.97
2022-08-17T06:09:41.281Z,101282.97
2022-08-17T06:12:30.405Z,101299.16
2022-08-17T06:15:13.063Z,101299.88
2022-08-17T06:17:45.019Z,101306.47
2022-08-17T06:20:17.331Z,101308.06
2022-08-17T06:22:51.177Z,101304.13
2022-08-17T06:25:24.144Z,101314.06
2022-08-17T06:27:57.665Z,101311.94
2022-08-17T06:30:41.362Z,101316.06
2022-08-17T06:33:27.801Z,101323.59
2022-08-17T06:36:09.554Z,101326.63
2022-08-17T06:38:48.230Z,101318.25
2022-08-17T06:41:23.870Z,101328.44
2022-08-17T06:44:04.568Z,101325.56
2022-08-17T06:46:40.213Z,101324.81
2022-08-17T06:49:21.941Z,101322.19
2022-08-17T06:51:53.874Z,101319.84
2022-08-17T06:54:33.097Z,101330.75
2022-08-17T06:57:14.951Z,101332.09
2022-08-17T06:59:54.814Z,101333.25
2022-08-17T07:02:52.884Z,101331.41
2022-08-17T07:05:31.952Z,101337.53
2022-08-17T07:08:06.833Z,101332.97
2022-08-17T07:10:44.461Z,101338.38
2022-08-17T07:13:29.707Z,101337.28
2022-08-17T07:16:08.800Z,101346.13
2022-08-17T07:18:43.922Z,101343.00
2022-08-17T07:21:27.744Z,101347.34
2022-08-17T07:24:29.767Z,101347.00
2022-08-17T07:27:15.903Z,101352.38
2022-08-17T07:29:51.512Z,101347.09
2022-08-17T07:32:25.050Z,101341.59
2022-08-17T07:35:16.987Z,101338.47
2022-08-17T07:37:51.194Z,101335.84
2022-08-17T07:40:26.624Z,101330.81
2022-08-17T07:43:22.022Z,101331.53
2022-08-17T07:46:24.468Z,101337.97
2022-08-17T07:48:55.978Z,101328.31
2022-08-17T07:51:29.793Z,101322.88
2022-08-17T07:54:13.960Z,101334.81
2022-08-17T07:56:46.357Z,101334.47
2022-08-17T07:59:23.073Z,101339.66
2022-08-17T08:02:19.159Z,101333.28
2022-08-17T08:05:06.815Z,101338.00
2022-08-17T08:07:53.179Z,101336.19
2022-08-17T08:10:32.725Z,101338.63
2022-08-17T08:13:14.650Z,101338.16
2022-08-17T08:15:56.145Z,101333.44
2022-08-17T08:18:53.788Z,101337.44
2022-08-17T08:21:30.513Z,101335.38
2022-08-17T08:24:12.135Z,101332.63
2022-08-17T08:26:55.844Z,101335.50
2022-08-17T08:29:33.234Z,101339.84
2022-08-17T08:32:13.592Z,101334.44
2022-08-17T08:35:01.490Z,101340.78
2022-08-17T08:37:43.927Z,101335.47
2022-08-17T08:40:29.990Z,101333.91
2022-08-17T08:43:08.583Z,101334.97
2022-08-17T08:45:47.961Z,101332.44
2022-08-17T08:48:53.786Z,101333.28
2022-08-17T08:51:37.287Z,101331.56
2022-08-17T08:54:26.602Z,101338.94
2022-08-17T08:57:30.970Z,101334.69
2022-08-17T09:00:04.023Z,101332.50
2022-08-17T09:02:48.460Z,101333.34
2022-08-17T09:05:30.982Z,101335.25
2022-08-17T09:08:07.874Z,101330.78
2022-08-17T09:10:57.013Z,101338.97
2022-08-17T09:13:39.030Z,101341.47
2022-08-17T09:16:17.280Z,101344.75
2022-08-17T09:19:02.629Z,101343.44
2022-08-17T09:21:47.988Z,101345.38
2022-08-17T09:24:26.005Z,101345.50
2022-08-17T09:27:00.406Z,101355.69
2022-08-17T09:29:35.512Z,101357.38
2022-08-17T09:32:14.344Z,101361.13
2022-08-17T09:34:49.587Z,101369.72
2022-08-17T09:37:25.156Z,101368.88
2022-08-17T09:40:06.081Z,101367.19
2022-08-17T09:42:44.120Z,101357.97
2022-08-17T09:45:28.020Z,101365.22
2022-08-17T09:48:07.600Z,101373.44
2022-08-17T09:51:04.929Z,101380.56
2022-08-17T09:53:33.600Z,101381.78
2022-08-17T09:56:20.107Z,101390.44
2022-08-17T09:59:11.390Z,101395.75
2022-08-17T10:01:45.413Z,101403.38
2022-08-17T10:04:38.027Z,101405.28
2022-08-17T10:07:16.473Z,101400.34
2022-08-17T10:10:01.129Z,101390.03
2022-08-17T10:12:43.166Z,101397.88
2022-08-17T10:15:40.820Z,101407.69
2022-08-17T10:18:35.623Z,101411.56
2022-08-17T10:21:27.215Z,101408.44
2022-08-17T10:24:22.306Z,101407.22
2022-08-17T10:26:56.713Z,101409.50
2022-08-17T10:29:40.820Z,101408.28
2022-08-17T10:32:32.914Z,101404.63
2022-08-17T10:35:19.520Z,101411.28
2022-08-17T10:38:09.662Z,101409.66
2022-08-17T10:40:48.221Z,101413.72
2022-08-17T10:43:29.676Z,101405.09
2022-08-17T10:46:29.927Z,101409.53
2022-08-17T10:49:26.689Z,101402.84
2022-08-17T10:51:58.589Z,101400.91
2022-08-17T10:54:50.012Z,101399.25
2022-08-17T10:57:39.304Z,101390.66
2022-08-17T11:00:15.058Z,101394.00
2022-08-17T11:02:51.726Z,101377.91
2022-08-17T11:05:44.203Z,101388.91
2022-08-17T11:08:38.581Z,101383.00
2022-08-17T11:11:36.217Z,101388.59
2022-08-17T11:14:41.452Z,101391.81
2022-08-17T11:17:22.327Z,101387.81
2022-08-17T11:20:09.790Z,101387.00
2022-08-17T11:23:11.906Z,101383.56
2022-08-17T11:25:43.895Z,101378.44
2022-08-17T11:28:20.125Z,101382.41
2022-08-17T11:30:53.217Z,101376.16
2022-08-17T11:33:55.488Z,101380.94
2022-08-17T11:36:47.637Z,101377.44
2022-08-17T11:39:30.695Z,101374.34
2022-08-17T11:42:06.674Z,101372.69
2022-08-17T11:44:53.550Z,101371.00
2022-08-17T11:48:09.367Z,101374.34
2022-08-17T11:51:18.140Z,101382.38
2022-08-17T11:54:32.424Z,101385.28
2022-08-17T11:57:03.626Z,101377.09
2022-08-17T12:00:01.899Z,101379.06
2022-08-17T12:02:47.383Z,101372.66
2022-08-17T12:05:33.540Z,101353.59
2022-08-17T12:08:18.068Z,101356.31
2022-08-17T12:11:03.754Z,101369.69
2022-08-17T12:13:39.429Z,101363.28
2022-08-17T12:16:15.282Z,101358.06
2022-08-17T12:18:51.341Z,101352.59
2022-08-17T12:21:50.709Z,101358.25
2022-08-17T12:24:33.211Z,101349.31
2022-08-17T12:27:04.689Z,101348.75
2022-08-17T12:29:38.613Z,101331.44
2022-08-17T12:32:18.051Z,101325.53
2022-08-17T12:34:49.341Z,101324.50
2022-08-17T12:37:21.602Z,101307.97
2022-08-17T12:39:55.473Z,101300.03
2022-08-17T12:42:27.772Z,101296.56
2022-08-17T12:44:57.134Z,101296.53
2022-08-17T12:47:31.742Z,101302.75
2022-08-17T12:50:28.181Z,101298.50
2022-08-17T12:53:02.283Z,101297.38
2022-08-17T12:55:37.577Z,101304.56
2022-08-17T12:58:08.118Z,101307.41
2022-08-17T13:00:47.480Z,101307.00
2022-08-17T13:03:21.283Z,101303.78
2022-08-17T13:06:02.937Z,101308.56
2022-08-17T13:08:35.684Z,101303.59
2022-08-17T13:11:10.317Z,101304.97
2022-08-17T13:13:43.124Z,101297.09
2022-08-17T13:16:20.573Z,101291.38
2022-08-17T13:18:54.067Z,101285.38
2022-08-17T13:21:30.637Z,101277.81
2022-08-17T13:24:03.071Z,101274.88
2022-08-17T13:26:37.048Z,101272.75
2022-08-17T13:29:09.157Z,101265.19
2022-08-17T13:31:52.328Z,101267.25
2022-08-17T13:35:01.652Z,101260.94
2022-08-17T13:37:35.557Z,101266.72
2022-08-17T13:40:33.205Z,101266.03
2022-08-17T13:43:03.690Z,101269.16
2022-08-17T13:45:51.879Z,101278.34
2022-08-17T13:48:31.544Z,101280.09
2022-08-17T13:51:15.637Z,101281.75
2022-08-17T13:54:06.970Z,101298.84
2022-08-17T13:56:54.905Z,101298.75
2022-08-17T13:59:53.463Z,101305.66
2022-08-17T14:02:23.248Z,101307.03
2022-08-17T14:04:56.286Z,101305.09
2022-08-17T14:07:33.883Z,101299.31
2022-08-17T14:10:06.815Z,101304.22
2022-08-17T14:12:37.471Z,101305.91
2022-08-17T14:15:06.851Z,101296.63
2022-08-17T14:17:38.869Z,101295.31
2022-08-17T14:23:54.985Z,101287.25
2022-08-17T14:34:24.253Z,101284.19
2022-08-17T14:36:58.921Z,101279.41
2022-08-17T14:43:09.509Z,101275.50
2022-08-17T14:49:20.963Z,101261.06
2022-08-17T14:55:29.986Z,101254.47
2022-08-17T15:01:40.236Z,101250.06
2022-08-17T15:07:49.380Z,101230.66
2022-08-17T15:13:58.696Z,101223.19
2022-08-17T15:20:36.015Z,101196.44
2022-08-17T15:23:14.282Z,101178.75
2022-08-17T15:25:44.112Z,101195.75
2022-08-17T15:28:30.273Z,101185.53
2022-08-17T15:30:59.796Z,101182.28
2022-08-17T15:33:34.464Z,101163.44
2022-08-17T15:36:35.492Z,101164.41
2022-08-17T15:39:41.710Z,101159.16
2022-08-17T15:42:15.005Z,101159.59
2022-08-17T15:45:08.746Z,101165.69
2022-08-17T15:47:38.543Z,101156.66
2022-08-17T15:50:10.150Z,101153.41
2022-08-17T15:52:43.306Z,101145.56
2022-08-17T15:55:15.633Z,101141.00
2022-08-17T15:57:44.278Z,101142.13
2022-08-17T16:00:13.416Z,101149.94
2022-08-17T16:03:46.050Z,101142.75
2022-08-17T16:05:32.460Z,101139.78
2022-08-17T16:08:02.907Z,101142.75
2022-08-17T16:10:34.542Z,101133.13
2022-08-17T16:13:05.029Z,101135.44
2022-08-17T16:15:40.372Z,101135.75
2022-08-17T16:18:09.083Z,101145.25
2022-08-17T16:20:44.493Z,101140.06
2022-08-17T16:23:20.089Z,101137.91
2022-08-17T16:25:53.005Z,101133.97
2022-08-17T16:28:36.620Z,101131.56
2022-08-17T16:31:08.029Z,101141.22
2022-08-17T16:33:39.771Z,101145.28
2022-08-17T16:36:10.434Z,101151.03
2022-08-17T16:38:41.817Z,101151.72
2022-08-17T16:41:11.585Z,101153.63
2022-08-17T16:43:40.157Z,101150.47
2022-08-17T16:46:11.752Z,101151.50
2022-08-17T16:48:47.140Z,101155.84
2022-08-17T16:51:16.658Z,101157.63
2022-08-17T16:53:46.990Z,101153.22
2022-08-17T16:56:32.775Z,101161.16
2022-08-17T16:59:07.240Z,101167.66
2022-08-17T17:01:45.790Z,101168.78
2022-08-17T17:04:20.742Z,101171.50
2022-08-17T17:07:01.917Z,101168.94
2022-08-17T17:09:49.884Z,101166.38
2022-08-17T17:12:34.929Z,101164.03
2022-08-17T17:15:12.241Z,101161.38
2022-08-17T17:17:48.254Z,101158.91
2022-08-17T17:20:21.926Z,101161.84
2022-08-17T17:22:58.151Z,101159.94
2022-08-17T17:25:33.223Z,101158.16
2022-08-17T17:28:25.101Z,101166.41
2022-08-17T17:31:05.732Z,101169.22
2022-08-17T17:33:40.919Z,101167.69
2022-08-17T17:36:26.744Z,101159.91
2022-08-17T17:39:01.673Z,101173.59
2022-08-17T17:41:43.073Z,101169.63
2022-08-17T17:44:17.873Z,101171.94
2022-08-17T17:46:52.987Z,101166.38
2022-08-17T17:49:23.707Z,101172.69
2022-08-17T17:52:10.975Z,101168.69
2022-08-17T17:54:52.800Z,101180.50
2022-08-17T17:57:33.799Z,101169.69
2022-08-17T18:00:08.810Z,101167.94
2022-08-17T18:03:01.770Z,101165.00
2022-08-17T18:05:48.096Z,101177.31
2022-08-17T18:08:34.888Z,101184.94
2022-08-17T18:11:24.575Z,101192.00
2022-08-17T18:14:14.648Z,101194.25
2022-08-17T18:16:46.309Z,101191.53
2022-08-17T18:19:25.871Z,101185.28
2022-08-17T18:22:06.807Z,101190.88
2022-08-17T18:24:42.504Z,101203.88
2022-08-17T18:27:24.756Z,101213.25
2022-08-17T18:29:57.154Z,101209.44
2022-08-17T18:32:36.525Z,101207.47
2022-08-17T18:35:35.321Z,101211.03
2022-08-17T18:38:24.286Z,101208.66
2022-08-17T18:41:02.933Z,101204.47
2022-08-17T18:43:43.820Z,101202.75
2022-08-17T18:46:30.057Z,101198.69
2022-08-17T18:49:01.871Z,101197.84
2022-08-17T18:51:42.426Z,101195.78
2022-08-17T18:54:21.571Z,101190.59
2022-08-17T18:56:56.257Z,101195.22
2022-08-17T18:59:29.998Z,101197.06
2022-08-17T19:02:34.623Z,101189.44
2022-08-17T19:05:13.713Z,101188.47
2022-08-17T19:07:44.395Z,101195.34
2022-08-17T19:10:20.890Z,101196.19
2022-08-17T19:12:54.297Z,101200.53
2022-08-17T19:15:34.931Z,101198.59
2022-08-17T19:18:15.326Z,101202.09
2022-08-17T19:20:49.097Z,101201.78
2022-08-17T19:23:25.126Z,101197.16
2022-08-17T19:25:59.259Z,101207.03
2022-08-17T19:28:34.924Z,101199.44
2022-08-17T19:31:11.253Z,101201.13
2022-08-17T19:33:41.989Z,101199.03
2022-08-17T19:36:34.666Z,101193.28
2022-08-17T19:39:12.621Z,101197.13
2022-08-17T19:41:52.516Z,101191.38
2022-08-17T19:44:37.950Z,101191.91
2022-08-17T19:47:36.454Z,101194.28
2022-08-17T19:50:15.577Z,101194.56
2022-08-17T19:52:54.841Z,101189.09
2022-08-17T19:55:32.285Z,101191.19
2022-08-17T19:58:10.575Z,101185.88
2022-08-17T20:00:48.361Z,101179.41
2022-08-17T20:03:23.347Z,101188.00
2022-08-17T20:06:15.045Z,101185.47
2022-08-17T20:09:00.689Z,101183.78
2022-08-17T20:11:43.198Z,101179.13
2022-08-17T20:14:16.405Z,101192.31
2022-08-17T20:16:48.676Z,101183.06
2022-08-17T20:19:25.200Z,101189.22
2022-08-17T20:22:00.566Z,101198.09
2022-08-17T20:24:36.309Z,101199.63
2022-08-17T20:27:15.969Z,101211.28
2022-08-17T20:30:01.521Z,101201.03
2022-08-17T20:32:33.357Z,101199.06
2022-08-17T20:35:09.467Z,101202.03
2022-08-17T20:37:45.208Z,101198.53
2022-08-17T20:40:35.338Z,101195.28
2022-08-17T20:43:37.313Z,101196.00
2022-08-17T20:46:18.365Z,101193.16
2022-08-17T20:48:50.140Z,101186.72
2022-08-17T20:51:28.786Z,101181.41
2022-08-17T20:54:39.073Z,101177.47
2022-08-17T20:57:14.402Z,101178.31
2022-08-17T21:00:14.392Z,101172.16
2022-08-17T21:02:45.149Z,101170.72
2022-08-17T21:05:38.852Z,101171.13
2022-08-17T21:08:16.429Z,101159.38
2022-08-17T21:10:49.689Z,101157.22
2022-08-17T21:14:05.234Z,101156.38
2022-08-17T21:16:50.558Z,101162.88
2022-08-17T21:20:00.183Z,101162.88
2022-08-17T21:22:35.504Z,101150.53
2022-08-17T21:25:17.876Z,101147.41
2022-08-17T21:27:58.852Z,101158.66
2022-08-17T21:30:57.227Z,101156.16
2022-08-17T21:33:31.744Z,101163.72
2022-08-17T21:36:27.002Z,101155.84
2022-08-17T21:39:09.039Z,101157.16
2022-08-17T21:41:53.120Z,101169.50
2022-08-17T21:44:32.265Z,101161.53
2022-08-17T21:47:20.461Z,101164.16
2022-08-17T21:49:50.060Z,101168.25
2022-08-17T21:52:21.964Z,101152.56
2022-08-17T21:54:53.532Z,101147.50
2022-08-17T21:57:52.771Z,101158.31
2022-08-17T22:00:34.451Z,101159.00
2022-08-17T22:03:09.917Z,101152.00
2022-08-17T22:05:41.749Z,101155.34
2022-08-17T22:08:20.528Z,101160.97
2022-08-17T22:10:51.462Z,101160.50
2022-08-17T22:13:24.748Z,101157.84
2022-08-17T22:16:15.541Z,101137.94
2022-08-17T22:19:00.149Z,101128.28
2022-08-17T22:21:36.879Z,101125.78
2022-08-17T22:24:07.420Z,101121.41
2022-08-17T22:27:11.374Z,101132.91
2022-08-17T22:29:56.922Z,101130.25
2022-08-17T22:32:42.019Z,101124.22
2022-08-17T22:35:34.821Z,101125.19
2022-08-17T22:38:34.338Z,101125.47
2022-08-17T22:41:48.365Z,101132.63
2022-08-17T22:44:32.040Z,101130.25
2022-08-17T22:47:11.450Z,101137.25
2022-08-17T22:49:53.022Z,101125.63
2022-08-17T22:52:33.820Z,101126.75
2022-08-17T22:55:32.483Z,101122.28
2022-08-17T22:58:20.359Z,101121.00
2022-08-17T23:00:51.276Z,101113.28
2022-08-17T23:03:25.287Z,101098.84
2022-08-17T23:06:06.527Z,101083.97
2022-08-17T23:08:48.478Z,101081.88
2022-08-17T23:11:36.797Z,101092.09
2022-08-17T23:14:19.701Z,101081.03
2022-08-17T23:16:52.621Z,101078.63
2022-08-17T23:19:22.773Z,101077.78
2022-08-17T23:21:55.537Z,101073.03
2022-08-17T23:24:28.186Z,101073.16
2022-08-17T23:26:59.527Z,101074.13
2022-08-17T23:29:29.662Z,101070.78
2022-08-17T23:32:01.688Z,101073.72
2022-08-17T23:34:33.025Z,101077.81
2022-08-17T23:37:02.890Z,101063.50
2022-08-17T23:39:33.133Z,101070.94
2022-08-17T23:42:08.288Z,101065.91
2022-08-17T23:44:39.733Z,101068.00
2022-08-17T23:47:09.774Z,101063.66
2022-08-17T23:49:39.280Z,101062.66
2022-08-17T23:52:14.952Z,101055.22
2022-08-17T23:54:49.430Z,101055.78
2022-08-17T23:57:33.123Z,101053.25
